createdAt,value
2019-06-26T00:00:05.171Z,19.33
2019-06-26T00:11:06.413Z,19.23
2019-06-26T00:22:06.391Z,19.03
2019-06-26T00:33:09.032Z,18.94
2019-06-26T00:44:08.885Z,18.94
2019-06-26T00:55:08.249Z,18.84
2019-06-26T01:06:01.538Z,18.74
2019-06-26T01:17:01.440Z,18.64
2019-06-26T01:28:02.602Z,18.64
2019-06-26T01:39:03.293Z,18.55
2019-06-26T01:50:04.027Z,18.55
2019-06-26T02:01:05.786Z,18.45
2019-06-26T02:12:06.187Z,18.35
2019-06-26T02:23:07.222Z,18.25
2019-06-26T02:34:09.124Z,18.15
2019-06-26T02:45:06.156Z,18.06
2019-06-26T02:56:06.100Z,17.96
2019-06-26T03:07:07.806Z,17.86
2019-06-26T03:18:08.307Z,17.76
2019-06-26T03:29:10.358Z,17.76
2019-06-26T03:40:12.376Z,17.76
2019-06-26T03:51:14.088Z,17.86
2019-06-26T04:02:17.868Z,18.06
2019-06-26T04:13:19.178Z,18.35
2019-06-26T04:24:09.582Z,18.64
2019-06-26T04:35:05.639Z,18.64
2019-06-26T04:45:58.086Z,18.84
2019-06-26T04:56:52.879Z,19.03
2019-06-26T05:07:49.173Z,19.43
2019-06-26T05:18:45.819Z,19.82
2019-06-26T05:29:42.060Z,20.01
2019-06-26T05:40:38.374Z,20.60
2019-06-26T05:51:35.659Z,20.89
2019-06-26T06:02:34.899Z,21.28
2019-06-26T06:13:29.704Z,22.07
2019-06-26T06:24:21.852Z,22.46
2019-06-26T06:35:08.009Z,22.85
2019-06-26T06:46:03.227Z,23.34
2019-06-26T06:57:01.587Z,23.53
2019-06-26T07:07:53.950Z,24.22
2019-06-26T07:18:35.041Z,24.61
2019-06-26T07:29:17.508Z,24.80
2019-06-26T07:40:01.468Z,25.19
2019-06-26T07:51:01.106Z,25.58
2019-06-26T08:01:58.291Z,25.49
2019-06-26T08:12:58.468Z,25.78
2019-06-26T08:23:59.483Z,26.07
2019-06-26T08:35:02.093Z,26.08
2019-06-26T08:46:02.674Z,26.47
2019-06-26T08:57:03.244Z,27.05
2019-06-26T09:08:03.412Z,27.25
2019-06-26T09:19:01.946Z,27.45
2019-06-26T09:30:03.375Z,27.64
2019-06-26T09:41:05.280Z,27.64
2019-06-26T09:52:05.635Z,27.83
2019-06-26T10:03:06.249Z,28.32
2019-06-26T10:14:06.677Z,28.33
2019-06-26T10:25:05.571Z,28.81
2019-06-26T10:36:09.321Z,29.30
2019-06-26T10:47:07.816Z,29.69
2019-06-26T10:58:10.534Z,29.89
2019-06-26T11:09:14.572Z,30.87
2019-06-26T11:20:14.793Z,30.97
2019-06-26T11:31:16.704Z,31.45
2019-06-26T11:42:17.349Z,32.82
2019-06-26T11:53:17.813Z,34.09
2019-06-26T12:04:19.290Z,36.15
2019-06-26T12:15:19.237Z,35.56
2019-06-26T12:26:20.108Z,35.95
2019-06-26T12:37:36.594Z,35.17
2019-06-26T12:48:27.702Z,35.95
2019-06-26T12:59:29.079Z,36.54
2019-06-26T13:10:29.804Z,37.13
2019-06-26T13:21:27.380Z,37.03
2019-06-26T13:32:21.938Z,37.22
2019-06-26T13:43:22.183Z,37.03
2019-06-26T13:54:17.943Z,36.34
2019-06-26T14:05:18.470Z,37.62
2019-06-26T14:16:15.325Z,36.83
2019-06-26T14:27:11.211Z,37.42
2019-06-26T14:38:10.645Z,38.01
2019-06-26T14:49:05.360Z,36.93
2019-06-26T15:00:07.214Z,36.54
2019-06-26T15:11:05.082Z,34.88
2019-06-26T15:22:01.953Z,33.02
2019-06-26T15:33:01.205Z,32.43
2019-06-26T15:44:01.689Z,32.14
2019-06-26T15:55:00.912Z,31.36
2019-06-26T16:06:02.069Z,30.87
2019-06-26T16:16:59.782Z,30.28
2019-06-26T16:28:05.772Z,29.79
2019-06-26T16:39:05.025Z,29.11
2019-06-26T16:50:03.538Z,29.01
2019-06-26T17:01:04.778Z,28.42
2019-06-26T17:11:59.569Z,28.91
2019-06-26T17:23:05.482Z,28.32
2019-06-26T17:34:00.902Z,28.13
2019-06-26T17:45:00.048Z,27.83
2019-06-26T17:56:00.311Z,27.64
2019-06-26T18:06:45.662Z,27.15
2019-06-26T18:17:43.010Z,26.76
2019-06-26T18:28:44.184Z,26.37
2019-06-26T18:39:46.343Z,25.98
2019-06-26T18:50:38.380Z,25.68
2019-06-26T19:01:36.031Z,25.39
2019-06-26T19:12:29.699Z,25.00
2019-06-26T19:23:27.684Z,24.81
2019-06-26T19:34:27.927Z,24.51
2019-06-26T19:45:26.546Z,24.22
2019-06-26T19:56:22.992Z,23.83
2019-06-26T20:07:19.508Z,23.53
2019-06-26T20:18:12.735Z,23.24
2019-06-26T20:29:11.401Z,22.95
2019-06-26T20:40:08.256Z,22.75
2019-06-26T20:51:04.934Z,22.56
2019-06-26T21:02:01.669Z,22.26
2019-06-26T21:12:54.398Z,22.17
2019-06-26T21:23:53.008Z,21.97
2019-06-26T21:34:50.899Z,21.87
2019-06-26T21:45:44.909Z,21.68
2019-06-26T21:56:43.502Z,21.58
2019-06-26T22:07:42.293Z,21.38
2019-06-26T22:18:39.026Z,21.38
2019-06-26T22:29:33.059Z,21.38
2019-06-26T22:40:34.116Z,21.28
2019-06-26T22:51:33.134Z,21.29
2019-06-26T23:02:28.397Z,21.09
2019-06-26T23:13:27.197Z,20.89
2019-06-26T23:24:23.962Z,20.79
2019-06-26T23:35:25.348Z,20.80
2019-06-26T23:46:24.268Z,20.60
2019-06-26T23:57:23.748Z,20.50
